Time;durP1;ratioP1;P1;durP2;ratioP2;P2;SDS_P1;SDS_P2;PMS_P1;PMS_P2;Temp;Humidity;BMP_temperature;BMP_pressure;BME280_temperature;BME280_humidity;BME280_pressure;Samples;Min_cycle;Max_cycle;Signal;HPM_P1;HPM_P2
2023/01/16 00:00:56;;;;;;;1.93;1.10;;;8.40;30.00;;;;;;4936923;29;20678;-76
2023/01/16 00:03:22;;;;;;;1.80;1.10;;;8.00;30.00;;;;;;4934391;29;20881;-76
2023/01/16 00:05:47;;;;;;;1.85;1.20;;;7.90;30.60;;;;;;4929381;29;20440;-76
2023/01/16 00:08:13;;;;;;;1.90;1.30;;;7.70;31.20;;;;;;4928990;29;20184;-76
2023/01/16 00:10:39;;;;;;;1.90;1.20;;;7.70;32.10;;;;;;4936658;29;20270;-76
2023/01/16 00:13:05;;;;;;;1.80;1.10;;;7.90;31.60;;;;;;4936846;29;20462;-76
2023/01/16 00:15:31;;;;;;;1.90;1.20;;;7.60;32.30;;;;;;4929360;29;20191;-76
2023/01/16 00:17:57;;;;;;;1.90;1.30;;;7.90;32.10;;;;;;4930094;29;20192;-76
2023/01/16 00:20:23;;;;;;;1.90;1.20;;;7.50;32.40;;;;;;4933685;29;20188;-76
2023/01/16 00:22:48;;;;;;;1.77;1.10;;;7.00;33.40;;;;;;4934295;29;20210;-76
2023/01/16 00:25:14;;;;;;;1.90;1.30;;;6.90;34.10;;;;;;4934332;29;20242;-76
2023/01/16 00:27:40;;;;;;;1.80;1.20;;;6.80;34.60;;;;;;4934105;29;20948;-77
2023/01/16 00:30:06;;;;;;;1.90;1.20;;;6.70;34.20;;;;;;4933978;29;20202;-77
2023/01/16 00:32:32;;;;;;;1.90;1.23;;;6.80;35.10;;;;;;4940437;29;20219;-77
2023/01/16 00:34:58;;;;;;;1.80;1.10;;;6.90;34.90;;;;;;4929638;29;20192;-76
2023/01/16 00:37:23;;;;;;;1.80;1.20;;;7.00;34.00;;;;;;4932849;29;20595;-76
2023/01/16 00:39:51;;;;;;;1.90;1.30;;;7.30;33.10;;;;;;4933937;29;20242;-76
2023/01/16 00:42:17;;;;;;;1.85;1.10;;;7.10;33.80;;;;;;4934154;29;20263;-76
2023/01/16 00:44:42;;;;;;;1.80;1.10;;;7.00;34.30;;;;;;4929150;29;20201;-76
2023/01/16 00:47:08;;;;;;;1.73;1.10;;;7.30;33.40;;;;;;4928053;29;20446;-76
2023/01/16 00:49:34;;;;;;;1.80;1.10;;;7.10;33.20;;;;;;4933620;29;20244;-76
2023/01/16 00:51:59;;;;;;;1.80;1.10;;;7.10;33.20;;;;;;4922859;29;20220;-77
2023/01/16 00:54:25;;;;;;;1.80;1.20;;;7.20;33.60;;;;;;4914890;29;20240;-76
2023/01/16 00:56:50;;;;;;;1.80;1.10;;;7.30;32.50;;;;;;4917956;29;20188;-77
2023/01/16 00:59:16;;;;;;;1.70;1.10;;;7.60;32.20;;;;;;4932344;29;20548;-77
2023/01/16 01:01:41;;;;;;;1.80;1.10;;;7.70;31.30;;;;;;4916840;29;20215;-76
2023/01/16 01:04:07;;;;;;;1.80;1.20;;;7.30;32.40;;;;;;4933936;29;20249;-76
2023/01/16 01:06:33;;;;;;;1.80;1.10;;;7.10;33.20;;;;;;4934194;29;20235;-76
2023/01/16 01:08:59;;;;;;;1.83;1.25;;;7.20;33.60;;;;;;4926374;29;20184;-77
2023/01/16 01:11:24;;;;;;;1.80;1.13;;;7.10;33.80;;;;;;4914602;29;20746;-76
2023/01/16 01:13:50;;;;;;;1.90;1.20;;;7.40;33.10;;;;;;4934049;29;20180;-77
2023/01/16 01:16:16;;;;;;;1.90;1.30;;;7.80;31.50;;;;;;4933240;29;20223;-76
2023/01/16 01:18:42;;;;;;;1.80;1.10;;;7.70;31.30;;;;;;4934208;29;20228;-76
2023/01/16 01:21:07;;;;;;;1.80;1.10;;;7.30;32.70;;;;;;4923804;29;20211;-77
2023/01/16 01:23:34;;;;;;;1.90;1.20;;;7.10;33.40;;;;;;4932974;29;20427;-77
2023/01/16 01:26:09;;;;;;;1.88;1.23;;;7.00;33.80;;;;;;4932578;29;20184;-76
2023/01/16 01:28:35;;;;;;;3.30;1.52;;;7.10;34.30;;;;;;4926026;29;20176;-76
2023/01/16 01:31:06;;;;;;;1.80;1.20;;;6.90;33.70;;;;;;4933335;29;20239;-77
2023/01/16 01:33:32;;;;;;;2.35;1.75;;;7.00;34.10;;;;;;4915214;29;20177;-76
2023/01/16 01:35:57;;;;;;;1.80;1.10;;;6.70;35.00;;;;;;4917910;29;20231;-76
2023/01/16 01:38:23;;;;;;;1.80;1.13;;;6.50;35.80;;;;;;4929889;29;20940;-76
2023/01/16 01:40:48;;;;;;;1.90;1.20;;;6.30;36.10;;;;;;4935743;29;20688;-76
2023/01/16 01:43:15;;;;;;;1.80;1.13;;;6.20;36.30;;;;;;4935702;29;20207;-76
2023/01/16 01:45:44;;;;;;;1.92;1.30;;;6.50;35.50;;;;;;4944395;29;20184;-76
2023/01/16 01:48:12;;;;;;;1.80;1.10;;;6.70;35.20;;;;;;4936554;29;20187;-78
2023/01/16 01:50:51;;;;;;;2.00;1.30;;;6.60;35.10;;;;;;4934494;29;20195;-78
2023/01/16 01:53:31;;;;;;;1.85;1.20;;;6.90;34.60;;;;;;4938752;29;20211;-78
2023/01/16 01:56:01;;;;;;;1.70;1.10;;;6.80;34.20;;;;;;4929917;29;20263;-77
2023/01/16 01:58:28;;;;;;;3.15;1.45;;;7.10;34.80;;;;;;4936029;29;20196;-77
2023/01/16 02:00:57;;;;;;;1.90;1.20;;;7.10;34.10;;;;;;4934555;29;20219;-78
2023/01/16 02:03:28;;;;;;;1.80;1.10;;;6.60;35.40;;;;;;4918185;29;20638;-77
2023/01/16 02:05:57;;;;;;;2.33;1.40;;;6.60;35.70;;;;;;4927077;29;20188;-76
2023/01/16 02:08:26;;;;;;;1.80;1.20;;;6.60;35.30;;;;;;4937526;29;20208;-76
2023/01/16 02:10:58;;;;;;;1.80;1.10;;;6.80;34.20;;;;;;4928378;29;20184;-75
2023/01/16 02:13:24;;;;;;;1.80;1.10;;;6.60;35.00;;;;;;4930594;29;20195;-75
2023/01/16 02:21:42;;;;;;;2.10;1.60;;;6.80;34.70;;;;;;4939253;29;20306;-75
2023/01/16 02:24:29;;;;;;;1.80;1.20;;;6.90;35.00;;;;;;4928274;29;20181;-74
2023/01/16 02:27:19;;;;;;;1.80;1.10;;;6.80;34.10;;;;;;4930862;29;20208;-76
2023/01/16 02:30:15;;;;;;;1.90;1.20;;;6.80;34.70;;;;;;4942923;29;20661;-75
2023/01/16 02:33:07;;;;;;;2.00;1.40;;;6.80;34.70;;;;;;4930543;29;20225;-76
2023/01/16 02:35:48;;;;;;;1.90;1.10;;;6.90;35.60;;;;;;4916887;29;20195;-78
2023/01/16 02:38:27;;;;;;;1.90;1.20;;;6.70;34.90;;;;;;4930359;29;20316;-78
2023/01/16 02:41:11;;;;;;;1.80;1.10;;;6.60;35.90;;;;;;4939467;29;20266;-78
2023/01/16 02:43:48;;;;;;;1.90;1.20;;;6.50;35.80;;;;;;4937455;29;20183;-78
2023/01/16 02:46:32;;;;;;;2.00;1.20;;;6.40;36.40;;;;;;4938415;29;20211;-78
2023/01/16 02:49:14;;;;;;;1.83;1.17;;;6.50;36.30;;;;;;4940866;29;20176;-78
2023/01/16 02:51:47;;;;;;;2.00;1.30;;;6.50;35.90;;;;;;4938978;29;20255;-77
2023/01/16 02:54:21;;;;;;;1.80;1.10;;;6.00;36.90;;;;;;4937939;29;20180;-77
2023/01/16 02:56:54;;;;;;;1.80;1.10;;;5.80;38.60;;;;;;4931554;29;20180;-77
2023/01/16 02:59:23;;;;;;;1.88;1.17;;;5.60;38.70;;;;;;4939801;29;20180;-77
2023/01/16 03:01:49;;;;;;;1.90;1.20;;;5.50;39.50;;;;;;4939446;29;20292;-78
2023/01/16 03:04:33;;;;;;;2.08;1.30;;;5.50;39.40;;;;;;4938489;29;20219;-77
2023/01/16 03:07:11;;;;;;;1.88;1.15;;;5.50;39.30;;;;;;4933630;29;20176;-78
2023/01/16 03:09:48;;;;;;;1.90;1.20;;;5.40;39.50;;;;;;4945264;29;20180;-77
2023/01/16 03:12:33;;;;;;;1.90;1.10;;;5.70;38.90;;;;;;4944851;29;20211;-79
2023/01/16 03:15:34;;;;;;;1.90;1.20;;;6.10;37.30;;;;;;4932356;29;20183;-78
2023/01/16 03:18:12;;;;;;;2.00;1.30;;;5.90;37.70;;;;;;4917592;29;20350;-79
2023/01/16 03:21:22;;;;;;;1.80;1.10;;;5.70;37.70;;;;;;4939048;29;20186;-79
2023/01/16 03:23:51;;;;;;;1.90;1.20;;;5.90;37.40;;;;;;4938066;29;20242;-79
2023/01/16 03:26:27;;;;;;;1.90;1.10;;;5.90;38.00;;;;;;4933978;29;20218;-79
2023/01/16 03:29:34;;;;;;;1.80;1.10;;;6.00;37.50;;;;;;4920546;29;20194;-78
2023/01/16 03:32:18;;;;;;;1.90;1.20;;;5.70;37.60;;;;;;4859181;29;20285;-79
2023/01/16 03:34:56;;;;;;;1.88;1.20;;;5.60;38.20;;;;;;4862482;29;20207;-78
2023/01/16 03:37:32;;;;;;;1.83;1.20;;;6.00;37.40;;;;;;4859356;29;20552;-78
2023/01/16 03:40:03;;;;;;;1.80;1.10;;;5.70;38.30;;;;;;4843607;29;20200;-78
2023/01/16 03:42:56;;;;;;;2.00;1.23;;;5.80;38.00;;;;;;4859887;29;20593;-77
2023/01/16 03:45:33;;;;;;;1.90;1.30;;;5.90;38.30;;;;;;4859957;29;20251;-78
2023/01/16 03:48:09;;;;;;;1.80;1.10;;;6.10;37.30;;;;;;4862369;29;20205;-78
2023/01/16 03:50:35;;;;;;;1.80;1.13;;;6.20;36.00;;;;;;4863840;29;20276;-78
2023/01/16 03:53:10;;;;;;;1.80;1.20;;;6.30;36.00;;;;;;4844815;29;20279;-79
2023/01/16 03:55:45;;;;;;;1.90;1.20;;;6.10;36.90;;;;;;4857480;29;20190;-78
2023/01/16 03:58:27;;;;;;;2.00;1.40;;;4.30;35.00;;;;;;4866512;29;20185;-78
2023/01/16 04:01:11;;;;;;;1.90;1.20;;;6.10;36.50;;;;;;4859772;29;20221;-79
2023/01/16 04:04:02;;;;;;;1.80;1.10;;;6.40;35.50;;;;;;4864288;29;20202;-79
2023/01/16 04:06:34;;;;;;;1.80;1.20;;;6.30;35.40;;;;;;4868186;29;20720;-78
2023/01/16 04:09:04;;;;;;;1.80;1.15;;;6.60;35.20;;;;;;4944441;29;20188;-78
2023/01/16 04:11:33;;;;;;;1.80;1.10;;;9.00;37.80;;;;;;4938926;29;20577;-78
2023/01/16 04:14:00;;;;;;;1.77;1.10;;;6.10;36.50;;;;;;4936876;29;20275;-78
2023/01/16 04:16:29;;;;;;;1.80;1.10;;;6.10;36.40;;;;;;4953901;29;20653;-78
2023/01/16 04:18:56;;;;;;;1.80;1.15;;;6.00;36.40;;;;;;4943772;29;20244;-78
2023/01/16 04:21:26;;;;;;;1.90;1.20;;;6.20;36.40;;;;;;4941015;29;20635;-78
2023/01/16 04:23:55;;;;;;;1.80;1.20;;;6.30;36.20;;;;;;4939164;29;20188;-79
2023/01/16 04:26:20;;;;;;;1.77;1.15;;;6.50;35.60;;;;;;4951790;29;20183;-78
2023/01/16 04:28:46;;;;;;;1.80;1.17;;;6.20;36.40;;;;;;4939750;29;20567;-78
2023/01/16 04:31:12;;;;;;;1.70;1.10;;;6.10;36.50;;;;;;4952297;29;20179;-78
2023/01/16 04:33:37;;;;;;;1.90;1.27;;;6.30;36.30;;;;;;4925644;29;20196;-78
2023/01/16 04:36:03;;;;;;;1.80;1.20;;;6.20;35.70;;;;;;4934558;29;20195;-79
2023/01/16 04:38:29;;;;;;;2.17;1.43;;;5.80;37.30;;;;;;4936208;29;20778;-78
2023/01/16 04:40:54;;;;;;;2.20;1.60;;;6.00;36.80;;;;;;4936472;29;20867;-78
2023/01/16 04:43:21;;;;;;;1.80;1.20;;;6.00;36.10;;;;;;4920142;29;20203;-79
2023/01/16 04:45:47;;;;;;;1.90;1.30;;;6.50;35.70;;;;;;4930022;29;20180;-78
2023/01/16 04:48:12;;;;;;;2.30;1.33;;;6.40;35.00;;;;;;4934174;29;20196;-78
2023/01/16 04:50:38;;;;;;;1.90;1.23;;;6.00;35.60;;;;;;4934202;29;20427;-78
2023/01/16 04:53:04;;;;;;;1.80;1.20;;;5.90;35.90;;;;;;4934060;29;20200;-79
2023/01/16 04:55:30;;;;;;;1.93;1.30;;;6.00;36.10;;;;;;4933079;29;20556;-79
2023/01/16 04:57:55;;;;;;;1.87;1.20;;;6.10;35.70;;;;;;4934251;29;20726;-79
2023/01/16 05:00:21;;;;;;;1.80;1.20;;;6.30;34.80;;;;;;4934378;29;20423;-79
2023/01/16 05:02:46;;;;;;;2.00;1.43;;;6.30;34.90;;;;;;4928720;29;20293;-79
2023/01/16 05:05:12;;;;;;;1.80;1.10;;;6.30;35.30;;;;;;4931566;29;20707;-78
2023/01/16 05:07:38;;;;;;;1.77;1.10;;;6.20;35.60;;;;;;4922365;29;20187;-78
2023/01/16 05:10:03;;;;;;;1.80;1.10;;;6.00;36.00;;;;;;4919023;29;20176;-78
2023/01/16 05:12:29;;;;;;;1.83;1.20;;;5.70;36.90;;;;;;4934313;29;20286;-79
2023/01/16 05:14:55;;;;;;;1.80;1.10;;;5.60;37.40;;;;;;4930431;29;20188;-78
2023/01/16 05:17:24;;;;;;;1.80;1.20;;;5.70;37.20;;;;;;4936541;29;20275;-78
2023/01/16 05:19:49;;;;;;;1.80;1.10;;;5.90;36.80;;;;;;4939355;29;20176;-78
2023/01/16 05:22:15;;;;;;;1.80;1.20;;;6.00;36.90;;;;;;4939257;29;20250;-78
2023/01/16 05:24:40;;;;;;;1.83;1.20;;;6.00;37.20;;;;;;4937691;29;20199;-78
2023/01/16 05:27:06;;;;;;;1.80;1.20;;;5.80;37.50;;;;;;4930157;29;20187;-78
2023/01/16 05:29:32;;;;;;;1.80;1.20;;;5.70;37.80;;;;;;4938907;29;20199;-78
2023/01/16 05:31:57;;;;;;;2.40;1.40;;;5.60;37.80;;;;;;4939547;29;20673;-78
2023/01/16 05:34:23;;;;;;;1.80;1.20;;;8.10;40.70;;;;;;4938546;29;20183;-78
2023/01/16 05:36:48;;;;;;;1.80;1.10;;;5.50;38.00;;;;;;4930970;29;20187;-78
2023/01/16 05:39:14;;;;;;;3.40;1.93;;;5.60;38.40;;;;;;4944117;29;20183;-78
2023/01/16 05:41:39;;;;;;;5.70;2.33;;;5.80;37.60;;;;;;4950679;29;20218;-79
2023/01/16 05:44:05;;;;;;;1.80;1.17;;;5.70;38.30;;;;;;4949504;29;20183;-79
2023/01/16 05:46:31;;;;;;;1.87;1.20;;;5.50;38.60;;;;;;4935234;29;20202;-78
2023/01/16 05:48:56;;;;;;;1.90;1.20;;;5.60;37.90;;;;;;4940385;29;20180;-78
2023/01/16 05:51:22;;;;;;;1.90;1.20;;;5.40;39.00;;;;;;4939999;29;20698;-78
2023/01/16 05:53:51;;;;;;;1.90;1.20;;;5.80;37.90;;;;;;4931793;29;20556;-78
2023/01/16 05:56:20;;;;;;;3.45;1.65;;;5.70;37.80;;;;;;4940279;29;20180;-78
2023/01/16 05:58:46;;;;;;;1.80;1.10;;;5.70;37.60;;;;;;4935281;29;20216;-78
2023/01/16 06:01:11;;;;;;;1.90;1.20;;;5.80;37.70;;;;;;4936240;29;20211;-78
2023/01/16 06:03:37;;;;;;;1.93;1.20;;;5.40;38.00;;;;;;4938773;29;20187;-78
2023/01/16 06:06:03;;;;;;;1.90;1.20;;;5.40;38.00;;;;;;4939397;29;20642;-78
2023/01/16 06:08:28;;;;;;;1.80;1.10;;;5.30;38.40;;;;;;4939548;29;20183;-78
2023/01/16 06:10:56;;;;;;;2.00;1.57;;;5.30;38.60;;;;;;4939071;29;20249;-77
2023/01/16 06:13:22;;;;;;;1.80;1.13;;;5.70;37.30;;;;;;4937187;29;20654;-78
2023/01/16 06:15:47;;;;;;;1.90;1.20;;;5.80;37.10;;;;;;4939285;29;20191;-78
2023/01/16 06:18:14;;;;;;;1.83;1.20;;;5.90;37.10;;;;;;4937024;29;20180;-78
2023/01/16 06:20:40;;;;;;;1.90;1.20;;;5.90;35.90;;;;;;4938914;29;20219;-78
2023/01/16 06:23:05;;;;;;;2.03;1.30;;;6.00;35.50;;;;;;4933356;29;20214;-78
2023/01/16 06:25:31;;;;;;;6.53;1.80;;;5.50;36.60;;;;;;4936312;29;20267;-78
2023/01/16 06:27:56;;;;;;;1.87;1.13;;;5.30;37.00;;;;;;4936811;29;20256;-78
2023/01/16 06:30:22;;;;;;;1.80;1.10;;;5.50;36.70;;;;;;4937263;29;20172;-79
2023/01/16 06:32:52;;;;;;;2.47;1.80;;;5.50;37.50;;;;;;4933749;29;20282;-78
2023/01/16 06:35:18;;;;;;;1.80;1.17;;;5.90;36.10;;;;;;4919052;29;20231;-78
2023/01/16 06:37:43;;;;;;;1.90;1.20;;;6.10;35.90;;;;;;4936818;29;20196;-80
2023/01/16 06:40:10;;;;;;;1.80;1.10;;;6.30;35.80;;;;;;4943276;29;20207;-76
2023/01/16 06:42:35;;;;;;;2.00;1.38;;;6.20;34.70;;;;;;4939403;29;20233;-79
2023/01/16 06:45:01;;;;;;;1.90;1.20;;;6.20;35.60;;;;;;4938897;29;20219;-80
2023/01/16 06:47:27;;;;;;;1.80;1.10;;;6.20;35.10;;;;;;4943494;29;20668;-79
2023/01/16 06:49:53;;;;;;;2.40;1.53;;;6.40;34.70;;;;;;4947863;29;20182;-79
2023/01/16 06:52:18;;;;;;;1.75;1.10;;;5.90;35.80;;;;;;4939222;29;20479;-76
2023/01/16 06:54:44;;;;;;;1.80;1.10;;;5.80;35.70;;;;;;4942816;29;20650;-80
2023/01/16 06:57:10;;;;;;;1.90;1.20;;;5.60;36.30;;;;;;4939315;29;20195;-78
2023/01/16 06:59:35;;;;;;;1.80;1.10;;;5.50;37.00;;;;;;4941214;29;20176;-78
2023/01/16 07:02:01;;;;;;;1.80;1.10;;;5.60;37.30;;;;;;4933128;29;20636;-78
2023/01/16 07:04:26;;;;;;;1.97;1.33;;;6.10;35.50;;;;;;4950035;29;20187;-74
2023/01/16 07:06:52;;;;;;;1.80;1.17;;;2.90;32.30;;;;;;4926671;29;20534;-75
2023/01/16 07:09:18;;;;;;;1.90;1.27;;;6.30;34.60;;;;;;4926992;29;20208;-74
2023/01/16 07:11:43;;;;;;;1.83;1.17;;;6.20;34.90;;;;;;4930303;29;20470;-75
2023/01/16 07:22:43;;;;;;;1.90;1.20;;;6.50;32.70;;;;;;4926485;29;20226;-75
2023/01/16 07:25:16;;;;;;;1.77;1.13;;;6.20;33.30;;;;;;4930776;29;20211;-76
2023/01/16 07:27:42;;;;;;;1.80;1.17;;;6.40;32.40;;;;;;4934356;29;20191;-75
2023/01/16 07:30:08;;;;;;;1.80;1.20;;;6.20;33.60;;;;;;4935013;29;20230;-77
2023/01/16 07:32:34;;;;;;;1.80;1.20;;;6.20;33.10;;;;;;4935139;29;20212;-74
2023/01/16 07:35:00;;;;;;;1.80;1.10;;;6.50;32.40;;;;;;4933970;29;20195;-76
2023/01/16 07:37:25;;;;;;;1.80;1.20;;;6.20;33.40;;;;;;4935215;29;20801;-75
2023/01/16 07:39:51;;;;;;;1.80;1.10;;;5.80;34.00;;;;;;4934638;29;20236;-74
2023/01/16 07:42:17;;;;;;;1.80;1.10;;;5.70;33.90;;;;;;4934603;29;20247;-76
2023/01/16 07:44:42;;;;;;;1.80;1.13;;;5.50;34.10;;;;;;4933190;29;20195;-75
2023/01/16 07:47:08;;;;;;;1.80;1.10;;;5.80;33.40;;;;;;4934355;29;20287;-74
2023/01/16 07:49:33;;;;;;;1.80;1.20;;;6.00;32.80;;;;;;4935221;29;20176;-74
2023/01/16 07:51:59;;;;;;;1.90;1.10;;;5.90;33.60;;;;;;4934986;29;20234;-76
2023/01/16 07:54:25;;;;;;;1.90;1.20;;;6.40;32.30;;;;;;4932439;29;20188;-74
2023/01/16 07:56:50;;;;;;;1.80;1.10;;;6.20;32.60;;;;;;4936578;29;20183;-73
2023/01/16 07:59:16;;;;;;;1.80;1.10;;;6.20;32.00;;;;;;4946490;29;20187;-75
2023/01/16 08:01:42;;;;;;;1.77;1.13;;;6.70;31.30;;;;;;4940265;29;20216;-74
2023/01/16 08:04:08;;;;;;;1.90;1.30;;;6.70;31.00;;;;;;4936502;29;20574;-75
2023/01/16 08:06:34;;;;;;;1.80;1.10;;;6.90;30.30;;;;;;4926812;29;20191;-77
2023/01/16 08:09:00;;;;;;;1.80;1.17;;;7.20;30.30;;;;;;4951180;29;20637;-75
2023/01/16 08:11:46;;;;;;;1.77;1.10;;;7.50;29.50;;;;;;4956673;29;20221;-76
2023/01/16 08:14:12;;;;;;;1.80;1.15;;;7.50;29.00;;;;;;4931745;29;20176;-76
2023/01/16 08:16:37;;;;;;;1.80;1.10;;;7.40;30.60;;;;;;4936262;29;20231;-77
2023/01/16 08:19:03;;;;;;;1.93;1.37;;;7.60;29.20;;;;;;4939040;29;20187;-75
2023/01/16 08:21:29;;;;;;;1.83;1.20;;;7.00;30.30;;;;;;4935855;29;20685;-76
2023/01/16 08:23:54;;;;;;;1.80;1.10;;;7.40;29.90;;;;;;4935406;29;20187;-80
2023/01/16 08:26:20;;;;;;;1.70;1.10;;;7.20;29.40;;;;;;4935045;29;20215;-78
2023/01/16 08:28:45;;;;;;;1.90;1.40;;;7.20;29.80;;;;;;4935769;29;20195;-76
2023/01/16 08:31:13;;;;;;;1.77;1.07;;;7.30;30.00;;;;;;4937415;29;20266;-76
2023/01/16 08:33:40;;;;;;;1.80;1.10;;;7.70;27.50;;;;;;4928551;29;20188;-77
2023/01/16 08:36:07;;;;;;;1.90;1.30;;;7.50;28.60;;;;;;4934590;29;20207;-80
2023/01/16 08:38:34;;;;;;;1.90;1.30;;;7.80;28.90;;;;;;4935246;29;20184;-79
2023/01/16 08:41:00;;;;;;;1.83;1.17;;;8.00;28.80;;;;;;4932878;29;20212;-75
2023/01/16 08:51:59;;;;;;;1.80;1.20;;;8.40;26.90;;;;;;4945609;29;20265;-79
2023/01/16 08:54:25;;;;;;;1.80;1.10;;;7.60;28.30;;;;;;4943352;29;20325;-77
2023/01/16 08:56:51;;;;;;;1.80;1.20;;;7.30;29.70;;;;;;4932935;29;20194;-76
2023/01/16 08:59:16;;;;;;;2.00;1.33;;;6.40;30.70;;;;;;4934304;29;20271;-75
2023/01/16 09:01:42;;;;;;;1.80;1.10;;;6.20;31.20;;;;;;4932536;29;20300;-76
2023/01/16 09:04:08;;;;;;;1.80;1.20;;;6.20;30.90;;;;;;4934791;29;20283;-77
2023/01/16 09:06:36;;;;;;;2.20;1.53;;;6.30;30.10;;;;;;4933567;29;20241;-77
2023/01/16 09:09:05;;;;;;;1.80;1.20;;;6.40;30.30;;;;;;4933648;29;20467;-77
2023/01/16 09:14:16;;;;;;;1.90;1.20;;;7.20;29.50;;;;;;4930753;29;20190;-75
2023/01/16 09:16:42;;;;;;;2.20;1.40;;;7.60;29.10;;;;;;4931436;29;20952;-75
2023/01/16 09:19:07;;;;;;;2.00;1.30;;;8.10;28.80;;;;;;4930453;29;21174;-75
2023/01/16 09:21:33;;;;;;;2.00;1.30;;;7.80;28.00;;;;;;4932586;29;20295;-75
2023/01/16 09:23:59;;;;;;;2.07;1.33;;;7.70;28.00;;;;;;4935835;29;20187;-76
2023/01/16 09:26:24;;;;;;;1.90;1.20;;;8.40;26.70;;;;;;4946929;29;20175;-76
2023/01/16 09:28:50;;;;;;;3.60;1.40;;;8.30;27.30;;;;;;4931398;29;20180;-75
2023/01/16 09:31:16;;;;;;;1.87;1.10;;;8.00;27.50;;;;;;4933261;29;20206;-76
2023/01/16 09:33:41;;;;;;;1.83;1.10;;;8.30;27.30;;;;;;4916753;29;20826;-76
2023/01/16 09:36:08;;;;;;;1.90;1.10;;;8.50;26.90;;;;;;4932618;29;20941;-74
2023/01/16 09:38:33;;;;;;;1.88;1.10;;;8.60;26.90;;;;;;4932324;29;20195;-74
2023/01/16 09:41:00;;;;;;;1.90;1.10;;;8.40;26.60;;;;;;4915484;29;20191;-74
2023/01/16 09:43:35;;;;;;;1.90;1.10;;;7.90;26.00;;;;;;4933307;29;20557;-74
2023/01/16 09:46:04;;;;;;;2.00;1.10;;;7.90;25.10;;;;;;4914960;29;20267;-72
2023/01/16 09:48:32;;;;;;;2.00;1.10;;;8.30;25.70;;;;;;4924985;29;20187;-75
2023/01/16 09:51:11;;;;;;;2.00;1.10;;;8.30;25.30;;;;;;4925863;29;20646;-75
2023/01/16 09:59:51;;;;;;;2.08;1.15;;;8.90;24.90;;;;;;4924082;29;20179;-76
2023/01/16 10:02:22;;;;;;;2.15;1.17;;;9.30;26.60;;;;;;4931070;29;20696;-74
2023/01/16 10:04:49;;;;;;;2.10;1.10;;;9.30;24.50;;;;;;4929719;29;20181;-76
2023/01/16 10:07:37;;;;;;;2.20;1.20;;;9.10;25.40;;;;;;4928338;29;20649;-74
2023/01/16 10:10:25;;;;;;;2.17;1.20;;;8.30;24.70;;;;;;4927280;29;20182;-75
2023/01/16 10:13:26;;;;;;;2.40;1.30;;;8.40;26.10;;;;;;4919459;29;20564;-74
2023/01/16 10:16:02;;;;;;;2.20;1.30;;;8.60;25.20;;;;;;4928074;29;20277;-74
2023/01/16 10:18:52;;;;;;;2.22;1.17;;;8.60;24.50;;;;;;4918483;29;20550;-74
2023/01/16 10:21:46;;;;;;;2.30;1.20;;;8.70;24.10;;;;;;4929555;29;20225;-74
2023/01/16 10:24:30;;;;;;;2.20;1.10;;;8.60;24.90;;;;;;4934184;29;20165;-74
2023/01/16 10:27:04;;;;;;;2.20;1.08;;;8.30;25.10;;;;;;4934826;29;20321;-75
2023/01/16 10:29:57;;;;;;;2.20;1.10;;;9.00;23.90;;;;;;4937654;29;20184;-75
2023/01/16 10:32:31;;;;;;;2.30;1.20;;;9.10;23.00;;;;;;4926942;29;20268;-74
2023/01/16 10:35:05;;;;;;;2.20;1.10;;;8.70;24.90;;;;;;4937643;29;20669;-74
2023/01/16 10:37:32;;;;;;;2.28;1.10;;;8.50;25.70;;;;;;4916185;29;20552;-76
2023/01/16 10:40:12;;;;;;;2.35;1.20;;;9.10;23.70;;;;;;4929931;29;20257;-75
2023/01/16 10:51:02;;;;;;;2.35;1.20;;;9.10;23.10;;;;;;4933378;29;20271;-75
2023/01/16 10:53:29;;;;;;;3.97;1.90;;;9.00;24.00;;;;;;4934155;29;20691;-75
2023/01/16 10:55:56;;;;;;;2.30;1.10;;;8.80;24.90;;;;;;4934356;29;20176;-75
2023/01/16 10:58:26;;;;;;;2.45;1.20;;;8.90;24.10;;;;;;4928054;29;20185;-75
2023/01/16 11:00:59;;;;;;;2.42;1.15;;;9.30;23.40;;;;;;4936471;29;20294;-75
2023/01/16 11:03:41;;;;;;;2.40;1.20;;;9.10;24.00;;;;;;4934221;29;20210;-75
2023/01/16 11:06:21;;;;;;;2.30;1.10;;;8.90;24.90;;;;;;4934356;29;20688;-74
2023/01/16 11:08:51;;;;;;;2.30;1.17;;;8.90;25.40;;;;;;4930153;29;20286;-75
2023/01/16 11:19:44;;;;;;;2.30;1.20;;;8.20;30.60;;;;;;4929660;29;20193;-76
2023/01/16 11:22:27;;;;;;;2.10;1.10;;;7.90;32.10;;;;;;4936313;29;20208;-75
2023/01/16 11:24:58;;;;;;;2.15;1.15;;;7.50;33.30;;;;;;4935563;29;20188;-78
2023/01/16 11:27:26;;;;;;;2.10;1.13;;;7.60;32.80;;;;;;4935342;29;20182;-77
2023/01/16 11:29:54;;;;;;;2.00;1.15;;;7.90;34.80;;;;;;4928226;29;20187;-75
2023/01/16 11:32:24;;;;;;;2.10;1.20;;;7.50;33.70;;;;;;4935789;29;20200;-75
2023/01/16 11:34:54;;;;;;;2.00;1.10;;;7.60;34.70;;;;;;4934596;29;20172;-75
2023/01/16 11:37:20;;;;;;;2.10;1.20;;;8.20;34.50;;;;;;4933513;29;20184;-74
2023/01/16 11:39:52;;;;;;;2.00;1.10;;;8.20;34.30;;;;;;4928577;29;20191;-76
2023/01/16 11:48:22;;;;;;;2.05;1.10;;;8.00;35.50;;;;;;4932946;29;20236;-74
2023/01/16 11:50:58;;;;;;;2.10;1.20;;;8.50;33.50;;;;;;4934482;29;20705;-73
2023/01/16 11:53:30;;;;;;;2.58;1.45;;;8.50;33.10;;;;;;4924495;29;20207;-73
2023/01/16 11:56:21;;;;;;;2.10;1.10;;;8.50;33.10;;;;;;4935485;29;20206;-74
2023/01/16 11:59:11;;;;;;;2.20;1.20;;;8.20;33.80;;;;;;4927393;29;20185;-74
2023/01/16 12:04:40;;;;;;;2.10;1.20;;;8.50;33.40;;;;;;4935756;29;20659;-73
2023/01/16 12:07:26;;;;;;;2.10;1.20;;;8.00;34.40;;;;;;4933577;29;20182;-73
2023/01/16 12:10:24;;;;;;;5.15;2.05;;;8.40;34.10;;;;;;4927266;29;20520;-73
2023/01/16 12:16:20;;;;;;;2.10;1.10;;;8.50;34.30;;;;;;4923874;29;20191;-75
2023/01/16 12:19:16;;;;;;;2.10;1.10;;;8.30;35.20;;;;;;4926262;29;20183;-75
2023/01/16 12:22:08;;;;;;;2.10;1.10;;;8.70;33.00;;;;;;4908830;29;21098;-73
2023/01/16 12:25:04;;;;;;;2.15;1.17;;;8.80;33.30;;;;;;4913888;29;20203;-73
2023/01/16 12:28:04;;;;;;;2.00;1.10;;;8.50;34.10;;;;;;4932310;29;20223;-76
2023/01/16 12:30:38;;;;;;;2.17;1.10;;;8.60;33.30;;;;;;4930669;29;20193;-75
2023/01/16 12:33:28;;;;;;;2.10;1.15;;;9.10;32.60;;;;;;4926185;29;20258;-76
2023/01/16 12:35:59;;;;;;;2.17;1.17;;;8.90;33.00;;;;;;4924831;29;20193;-75
2023/01/16 12:38:36;;;;;;;2.20;1.20;;;8.80;33.80;;;;;;4931869;29;20222;-75
2023/01/16 12:44:16;;;;;;;2.10;1.10;;;9.20;32.60;;;;;;4929255;29;20187;-75
2023/01/16 12:47:04;;;;;;;2.20;1.10;;;9.40;32.60;;;;;;4931559;29;20235;-76
2023/01/16 12:49:30;;;;;;;2.17;1.15;;;9.40;32.10;;;;;;4930769;29;20191;-74
2023/01/16 12:52:19;;;;;;;2.40;1.33;;;9.20;32.60;;;;;;4914248;29;20226;-75
2023/01/16 12:54:54;;;;;;;2.28;1.20;;;9.80;31.40;;;;;;4927808;29;20195;-76
2023/01/16 12:57:51;;;;;;;3.03;1.50;;;9.50;31.30;;;;;;4926780;29;20178;-76
2023/01/16 13:00:24;;;;;;;2.20;1.13;;;9.50;31.90;;;;;;4932330;29;20191;-74
2023/01/16 13:03:47;;;;;;;2.20;1.10;;;9.10;32.60;;;;;;4930564;29;20266;-76
2023/01/16 13:06:20;;;;;;;2.28;1.17;;;9.00;32.50;;;;;;4863794;29;20261;-75
2023/01/16 13:09:00;;;;;;;2.25;1.10;;;9.20;32.70;;;;;;4883757;29;20683;-76
2023/01/16 13:14:22;;;;;;;2.28;1.17;;;9.30;32.80;;;;;;4889841;29;20257;-75
2023/01/16 13:17:15;;;;;;;2.30;1.10;;;9.30;32.70;;;;;;4886023;29;20687;-75
2023/01/16 13:19:42;;;;;;;2.20;1.17;;;9.00;33.00;;;;;;4892767;29;20213;-75
2023/01/16 13:22:29;;;;;;;2.20;1.10;;;9.30;33.60;;;;;;4883725;29;20289;-75
2023/01/16 13:25:05;;;;;;;2.20;1.10;;;9.50;32.90;;;;;;4876898;29;20657;-76
2023/01/16 13:28:00;;;;;;;2.60;1.45;;;9.70;31.50;;;;;;4876197;29;20240;-76
2023/01/16 13:30:26;;;;;;;2.30;1.17;;;9.70;31.50;;;;;;4876905;29;20344;-76
2023/01/16 13:33:07;;;;;;;4.20;1.70;;;9.90;30.00;;;;;;4876654;29;20751;-75
2023/01/16 13:35:50;;;;;;;2.30;1.10;;;10.10;29.70;;;;;;4876923;29;20177;-75
2023/01/16 13:38:18;;;;;;;2.53;1.13;;;10.10;28.90;;;;;;4878183;29;20461;-76
2023/01/16 13:40:50;;;;;;;2.60;1.10;;;10.50;28.40;;;;;;4928726;29;20498;-75
2023/01/16 13:46:17;;;;;;;2.67;1.10;;;12.00;27.20;;;;;;4939601;29;20434;-76
2023/01/16 13:48:50;;;;;;;2.80;1.20;;;11.40;26.30;;;;;;4938063;29;20419;-76
2023/01/16 13:51:19;;;;;;;2.70;1.10;;;11.00;27.20;;;;;;4938867;29;20443;-75
2023/01/16 13:53:50;;;;;;;2.73;1.10;;;10.90;26.60;;;;;;4938299;29;20408;-77
2023/01/16 13:56:26;;;;;;;2.90;1.20;;;10.60;27.10;;;;;;4938922;29;20416;-77
2023/01/16 13:58:59;;;;;;;2.70;1.10;;;10.10;27.50;;;;;;4938079;29;20399;-77
2023/01/16 14:01:55;;;;;;;2.60;1.17;;;9.40;29.90;;;;;;4937203;29;20351;-76
2023/01/16 14:04:21;;;;;;;2.40;1.10;;;9.10;30.20;;;;;;4937726;29;20157;-75
2023/01/16 14:10:07;;;;;;;2.35;1.10;;;9.20;29.80;;;;;;4898065;29;20416;-77
2023/01/16 14:12:35;;;;;;;2.50;1.20;;;9.50;30.30;;;;;;4928955;29;20203;-73
2023/01/16 14:18:02;;;;;;;2.50;1.20;;;9.70;29.10;;;;;;4937768;29;20218;-76
2023/01/16 14:20:48;;;;;;;2.42;1.10;;;9.90;29.10;;;;;;4937009;29;20175;-77
2023/01/16 14:26:21;;;;;;;2.47;1.10;;;10.70;27.20;;;;;;4938099;29;20197;-77
2023/01/16 14:28:50;;;;;;;2.50;1.17;;;9.70;29.40;;;;;;4936883;29;20191;-77
2023/01/16 14:31:35;;;;;;;2.50;1.27;;;9.40;30.60;;;;;;4919246;29;20231;-76
2023/01/16 14:34:02;;;;;;;2.40;1.20;;;9.60;29.80;;;;;;4932169;29;20218;-77
2023/01/16 14:36:28;;;;;;;2.30;1.10;;;9.40;30.10;;;;;;4937186;29;20691;-76
2023/01/16 14:38:54;;;;;;;2.40;1.20;;;9.40;30.60;;;;;;4938046;29;20213;-76